sensor_id;sensor_type;location;lat;lon;timestamp;temperature;humidity
63899;HTU21D;50070;-32.946;-60.652;2023-02-21T00:00:05;27.76;33.34
63899;HTU21D;50070;-32.946;-60.652;2023-02-21T00:02:50;27.82;33.26
63899;HTU21D;50070;-32.946;-60.652;2023-02-21T00:05:35;27.79;33.67
63899;HTU21D;50070;-32.946;-60.652;2023-02-21T00:08:20;27.80;34.05
63899;HTU21D;50070;-32.946;-60.652;2023-02-21T00:11:06;27.51;35.11
63899;HTU21D;50070;-32.946;-60.652;2023-02-21T00:13:51;27.54;34.45
63899;HTU21D;50070;-32.946;-60.652;2023-02-21T00:16:35;27.69;34.06
63899;HTU21D;50070;-32.946;-60.652;2023-02-21T00:19:20;27.59;34.44
63899;HTU21D;50070;-32.946;-60.652;2023-02-21T00:22:06;27.57;34.69
63899;HTU21D;50070;-32.946;-60.652;2023-02-21T00:24:51;27.50;34.95
63899;HTU21D;50070;-32.946;-60.652;2023-02-21T00:27:37;27.52;34.51
63899;HTU21D;50070;-32.946;-60.652;2023-02-21T00:30:22;27.41;34.73
63899;HTU21D;50070;-32.946;-60.652;2023-02-21T00:33:08;27.34;34.76
63899;HTU21D;50070;-32.946;-60.652;2023-02-21T00:35:53;27.20;34.81
63899;HTU21D;50070;-32.946;-60.652;2023-02-21T00:38:38;27.31;33.97
63899;HTU21D;50070;-32.946;-60.652;2023-02-21T00:41:23;27.47;33.47
63899;HTU21D;50070;-32.946;-60.652;2023-02-21T00:44:09;27.30;33.38
63899;HTU21D;50070;-32.946;-60.652;2023-02-21T00:46:54;27.31;33.09
63899;HTU21D;50070;-32.946;-60.652;2023-02-21T00:49:44;27.47;32.64
63899;HTU21D;50070;-32.946;-60.652;2023-02-21T00:52:28;27.52;32.28
63899;HTU21D;50070;-32.946;-60.652;2023-02-21T00:55:17;27.73;30.29
63899;HTU21D;50070;-32.946;-60.652;2023-02-21T00:58:02;27.36;31.61
63899;HTU21D;50070;-32.946;-60.652;2023-02-21T01:00:47;27.53;30.83
63899;HTU21D;50070;-32.946;-60.652;2023-02-21T01:03:34;27.49;30.62
63899;HTU21D;50070;-32.946;-60.652;2023-02-21T01:06:22;27.63;30.34
63899;HTU21D;50070;-32.946;-60.652;2023-02-21T01:09:07;27.70;29.51
63899;HTU21D;50070;-32.946;-60.652;2023-02-21T01:11:52;27.80;28.72
63899;HTU21D;50070;-32.946;-60.652;2023-02-21T01:14:40;27.57;29.88
63899;HTU21D;50070;-32.946;-60.652;2023-02-21T01:17:25;27.69;30.16
63899;HTU21D;50070;-32.946;-60.652;2023-02-21T01:20:10;27.88;28.97
63899;HTU21D;50070;-32.946;-60.652;2023-02-21T01:22:55;27.70;29.64
63899;HTU21D;50070;-32.946;-60.652;2023-02-21T01:25:43;27.63;30.16
63899;HTU21D;50070;-32.946;-60.652;2023-02-21T01:28:28;27.82;30.88
63899;HTU21D;50070;-32.946;-60.652;2023-02-21T01:31:17;27.79;31.79
63899;HTU21D;50070;-32.946;-60.652;2023-02-21T01:34:05;27.70;32.41
63899;HTU21D;50070;-32.946;-60.652;2023-02-21T01:36:51;27.89;32.83
63899;HTU21D;50070;-32.946;-60.652;2023-02-21T01:39:36;27.31;34.62
63899;HTU21D;50070;-32.946;-60.652;2023-02-21T01:42:21;27.30;34.75
63899;HTU21D;50070;-32.946;-60.652;2023-02-21T01:48:10;27.10;35.32
63899;HTU21D;50070;-32.946;-60.652;2023-02-21T01:50:57;27.34;34.75
63899;HTU21D;50070;-32.946;-60.652;2023-02-21T01:53:43;27.25;34.72
63899;HTU21D;50070;-32.946;-60.652;2023-02-21T01:56:29;27.46;34.33
63899;HTU21D;50070;-32.946;-60.652;2023-02-21T01:59:16;27.34;33.75
63899;HTU21D;50070;-32.946;-60.652;2023-02-21T02:02:34;27.27;33.90
63899;HTU21D;50070;-32.946;-60.652;2023-02-21T02:05:16;27.14;33.28
63899;HTU21D;50070;-32.946;-60.652;2023-02-21T02:08:01;27.37;32.98
63899;HTU21D;50070;-32.946;-60.652;2023-02-21T02:10:56;27.50;32.61
63899;HTU21D;50070;-32.946;-60.652;2023-02-21T02:14:15;27.34;32.68
63899;HTU21D;50070;-32.946;-60.652;2023-02-21T02:31:14;27.24;33.63
63899;HTU21D;50070;-32.946;-60.652;2023-02-21T02:36:55;26.37;37.83
63899;HTU21D;50070;-32.946;-60.652;2023-02-21T02:39:39;25.99;40.90
63899;HTU21D;50070;-32.946;-60.652;2023-02-21T02:45:10;26.33;39.75
63899;HTU21D;50070;-32.946;-60.652;2023-02-21T02:47:41;25.87;41.03
63899;HTU21D;50070;-32.946;-60.652;2023-02-21T02:50:09;25.58;40.88
63899;HTU21D;50070;-32.946;-60.652;2023-02-21T02:52:38;25.50;41.04
63899;HTU21D;50070;-32.946;-60.652;2023-02-21T02:55:29;25.30;40.97
63899;HTU21D;50070;-32.946;-60.652;2023-02-21T02:57:59;25.47;40.61
63899;HTU21D;50070;-32.946;-60.652;2023-02-21T03:00:27;25.49;40.17
63899;HTU21D;50070;-32.946;-60.652;2023-02-21T03:05:53;25.16;41.09
63899;HTU21D;50070;-32.946;-60.652;2023-02-21T03:09:25;25.31;40.60
63899;HTU21D;50070;-32.946;-60.652;2023-02-21T03:11:32;25.22;40.62
63899;HTU21D;50070;-32.946;-60.652;2023-02-21T03:14:19;24.64;42.52
63899;HTU21D;50070;-32.946;-60.652;2023-02-21T03:16:53;24.87;42.09
63899;HTU21D;50070;-32.946;-60.652;2023-02-21T03:19:32;25.03;41.68
63899;HTU21D;50070;-32.946;-60.652;2023-02-21T03:22:12;25.05;41.68
63899;HTU21D;50070;-32.946;-60.652;2023-02-21T03:24:42;24.89;42.16
63899;HTU21D;50070;-32.946;-60.652;2023-02-21T03:27:11;24.95;42.00
63899;HTU21D;50070;-32.946;-60.652;2023-02-21T03:29:38;25.21;41.50
63899;HTU21D;50070;-32.946;-60.652;2023-02-21T03:32:28;25.01;42.09
63899;HTU21D;50070;-32.946;-60.652;2023-02-21T03:34:56;24.88;42.16
63899;HTU21D;50070;-32.946;-60.652;2023-02-21T03:37:36;24.86;42.13
63899;HTU21D;50070;-32.946;-60.652;2023-02-21T03:40:10;24.79;42.43
63899;HTU21D;50070;-32.946;-60.652;2023-02-21T03:42:38;24.99;41.94
63899;HTU21D;50070;-32.946;-60.652;2023-02-21T03:45:04;24.91;42.19
63899;HTU21D;50070;-32.946;-60.652;2023-02-21T03:47:31;24.80;42.21
63899;HTU21D;50070;-32.946;-60.652;2023-02-21T03:49:58;24.83;42.39
63899;HTU21D;50070;-32.946;-60.652;2023-02-21T03:52:25;24.44;43.10
63899;HTU21D;50070;-32.946;-60.652;2023-02-21T03:54:51;24.66;42.71
63899;HTU21D;50070;-32.946;-60.652;2023-02-21T03:57:18;24.80;42.15
63899;HTU21D;50070;-32.946;-60.652;2023-02-21T03:59:45;24.74;42.32
63899;HTU21D;50070;-32.946;-60.652;2023-02-21T04:02:12;24.58;42.65
63899;HTU21D;50070;-32.946;-60.652;2023-02-21T04:04:39;24.56;42.64
63899;HTU21D;50070;-32.946;-60.652;2023-02-21T04:07:06;24.54;42.52
63899;HTU21D;50070;-32.946;-60.652;2023-02-21T04:09:32;24.61;42.58
63899;HTU21D;50070;-32.946;-60.652;2023-02-21T04:11:59;24.35;43.07
63899;HTU21D;50070;-32.946;-60.652;2023-02-21T04:14:26;24.65;42.27
63899;HTU21D;50070;-32.946;-60.652;2023-02-21T04:16:54;24.36;43.06
63899;HTU21D;50070;-32.946;-60.652;2023-02-21T04:19:21;24.44;42.78
63899;HTU21D;50070;-32.946;-60.652;2023-02-21T04:21:47;24.42;42.84
63899;HTU21D;50070;-32.946;-60.652;2023-02-21T04:24:14;24.30;42.84
63899;HTU21D;50070;-32.946;-60.652;2023-02-21T04:26:41;23.97;43.80
63899;HTU21D;50070;-32.946;-60.652;2023-02-21T04:29:11;24.27;43.23
63899;HTU21D;50070;-32.946;-60.652;2023-02-21T04:31:40;24.19;43.17
63899;HTU21D;50070;-32.946;-60.652;2023-02-21T04:34:06;23.95;43.92
63899;HTU21D;50070;-32.946;-60.652;2023-02-21T04:36:33;23.91;44.08
63899;HTU21D;50070;-32.946;-60.652;2023-02-21T04:39:02;23.83;44.48
63899;HTU21D;50070;-32.946;-60.652;2023-02-21T04:41:29;24.08;43.91
63899;HTU21D;50070;-32.946;-60.652;2023-02-21T04:43:56;24.10;43.70
63899;HTU21D;50070;-32.946;-60.652;2023-02-21T04:46:23;23.99;43.81
63899;HTU21D;50070;-32.946;-60.652;2023-02-21T04:48:51;24.17;43.25
63899;HTU21D;50070;-32.946;-60.652;2023-02-21T04:51:21;23.88;43.88
63899;HTU21D;50070;-32.946;-60.652;2023-02-21T04:53:49;23.96;43.87
63899;HTU21D;50070;-32.946;-60.652;2023-02-21T04:56:23;23.62;44.72
63899;HTU21D;50070;-32.946;-60.652;2023-02-21T04:58:50;23.74;44.64
63899;HTU21D;50070;-32.946;-60.652;2023-02-21T05:01:19;23.65;44.91
63899;HTU21D;50070;-32.946;-60.652;2023-02-21T05:03:46;23.76;44.66
63899;HTU21D;50070;-32.946;-60.652;2023-02-21T05:06:20;23.65;44.81
63899;HTU21D;50070;-32.946;-60.652;2023-02-21T05:08:47;23.54;45.24
63899;HTU21D;50070;-32.946;-60.652;2023-02-21T05:11:14;23.60;45.25
63899;HTU21D;50070;-32.946;-60.652;2023-02-21T05:13:42;23.24;46.38
63899;HTU21D;50070;-32.946;-60.652;2023-02-21T05:16:09;23.27;46.31
63899;HTU21D;50070;-32.946;-60.652;2023-02-21T05:18:36;23.02;47.23
63899;HTU21D;50070;-32.946;-60.652;2023-02-21T05:21:06;23.23;46.59
63899;HTU21D;50070;-32.946;-60.652;2023-02-21T05:23:34;22.95;47.40
63899;HTU21D;50070;-32.946;-60.652;2023-02-21T05:26:04;22.81;47.85
63899;HTU21D;50070;-32.946;-60.652;2023-02-21T05:28:31;22.85;47.63
63899;HTU21D;50070;-32.946;-60.652;2023-02-21T05:30:58;22.83;47.70
63899;HTU21D;50070;-32.946;-60.652;2023-02-21T05:33:25;23.09;46.95
63899;HTU21D;50070;-32.946;-60.652;2023-02-21T05:35:51;23.03;47.33
63899;HTU21D;50070;-32.946;-60.652;2023-02-21T05:38:20;22.66;48.64
63899;HTU21D;50070;-32.946;-60.652;2023-02-21T05:40:47;22.84;48.12
63899;HTU21D;50070;-32.946;-60.652;2023-02-21T05:43:14;23.21;47.03
63899;HTU21D;50070;-32.946;-60.652;2023-02-21T05:45:41;23.08;47.44
63899;HTU21D;50070;-32.946;-60.652;2023-02-21T05:48:07;23.22;46.68
63899;HTU21D;50070;-32.946;-60.652;2023-02-21T05:50:34;23.24;46.55
63899;HTU21D;50070;-32.946;-60.652;2023-02-21T05:53:01;23.12;46.86
63899;HTU21D;50070;-32.946;-60.652;2023-02-21T05:55:28;22.93;47.50
63899;HTU21D;50070;-32.946;-60.652;2023-02-21T05:57:55;23.07;47.24
63899;HTU21D;50070;-32.946;-60.652;2023-02-21T06:00:25;22.88;47.78
63899;HTU21D;50070;-32.946;-60.652;2023-02-21T06:02:55;22.93;47.76
63899;HTU21D;50070;-32.946;-60.652;2023-02-21T06:05:22;22.96;47.85
63899;HTU21D;50070;-32.946;-60.652;2023-02-21T06:07:50;22.75;48.73
63899;HTU21D;50070;-32.946;-60.652;2023-02-21T06:10:17;22.78;48.74
63899;HTU21D;50070;-32.946;-60.652;2023-02-21T06:12:44;23.07;47.89
63899;HTU21D;50070;-32.946;-60.652;2023-02-21T06:15:11;22.91;48.35
63899;HTU21D;50070;-32.946;-60.652;2023-02-21T06:17:40;22.82;48.72
63899;HTU21D;50070;-32.946;-60.652;2023-02-21T06:20:13;22.62;49.40
63899;HTU21D;50070;-32.946;-60.652;2023-02-21T06:22:42;22.82;48.86
63899;HTU21D;50070;-32.946;-60.652;2023-02-21T06:25:12;22.64;49.52
63899;HTU21D;50070;-32.946;-60.652;2023-02-21T06:27:40;22.83;48.86
63899;HTU21D;50070;-32.946;-60.652;2023-02-21T06:30:09;22.95;48.35
63899;HTU21D;50070;-32.946;-60.652;2023-02-21T06:32:36;22.97;48.53
63899;HTU21D;50070;-32.946;-60.652;2023-02-21T06:35:03;22.87;48.83
63899;HTU21D;50070;-32.946;-60.652;2023-02-21T06:37:30;22.90;48.70
63899;HTU21D;50070;-32.946;-60.652;2023-02-21T06:39:57;22.64;49.86
63899;HTU21D;50070;-32.946;-60.652;2023-02-21T06:42:23;22.39;50.59
63899;HTU21D;50070;-32.946;-60.652;2023-02-21T06:44:50;22.06;51.55
63899;HTU21D;50070;-32.946;-60.652;2023-02-21T06:47:17;22.32;50.82
63899;HTU21D;50070;-32.946;-60.652;2023-02-21T06:49:45;22.41;50.53
63899;HTU21D;50070;-32.946;-60.652;2023-02-21T06:52:11;22.43;50.59
63899;HTU21D;50070;-32.946;-60.652;2023-02-21T06:54:38;22.36;50.91
63899;HTU21D;50070;-32.946;-60.652;2023-02-21T06:57:05;22.27;51.35
63899;HTU21D;50070;-32.946;-60.652;2023-02-21T06:59:32;22.19;51.55
63899;HTU21D;50070;-32.946;-60.652;2023-02-21T07:01:59;22.17;51.72
63899;HTU21D;50070;-32.946;-60.652;2023-02-21T07:04:27;22.33;50.98
63899;HTU21D;50070;-32.946;-60.652;2023-02-21T07:06:54;22.55;50.25
63899;HTU21D;50070;-32.946;-60.652;2023-02-21T07:09:24;22.53;50.30
63899;HTU21D;50070;-32.946;-60.652;2023-02-21T07:11:51;22.70;49.80
63899;HTU21D;50070;-32.946;-60.652;2023-02-21T07:14:17;22.54;50.52
63899;HTU21D;50070;-32.946;-60.652;2023-02-21T07:16:45;22.52;50.66
63899;HTU21D;50070;-32.946;-60.652;2023-02-21T07:19:11;22.47;50.79
63899;HTU21D;50070;-32.946;-60.652;2023-02-21T07:21:40;22.35;51.50
63899;HTU21D;50070;-32.946;-60.652;2023-02-21T07:24:07;22.62;50.88
63899;HTU21D;50070;-32.946;-60.652;2023-02-21T07:26:34;22.39;51.50
63899;HTU21D;50070;-32.946;-60.652;2023-02-21T07:29:03;22.55;51.10
63899;HTU21D;50070;-32.946;-60.652;2023-02-21T07:31:32;22.39;51.59
63899;HTU21D;50070;-32.946;-60.652;2023-02-21T07:33:59;22.64;50.90
63899;HTU21D;50070;-32.946;-60.652;2023-02-21T07:36:25;22.44;51.59
63899;HTU21D;50070;-32.946;-60.652;2023-02-21T07:38:53;22.64;50.92
63899;HTU21D;50070;-32.946;-60.652;2023-02-21T07:41:19;22.44;51.55
63899;HTU21D;50070;-32.946;-60.652;2023-02-21T07:43:50;21.89;53.32
63899;HTU21D;50070;-32.946;-60.652;2023-02-21T07:46:16;22.16;52.46
63899;HTU21D;50070;-32.946;-60.652;2023-02-21T07:48:43;22.09;52.47
63899;HTU21D;50070;-32.946;-60.652;2023-02-21T07:51:10;21.72;53.74
63899;HTU21D;50070;-32.946;-60.652;2023-02-21T07:53:37;21.69;54.07
63899;HTU21D;50070;-32.946;-60.652;2023-02-21T07:56:04;22.11;52.37
63899;HTU21D;50070;-32.946;-60.652;2023-02-21T07:58:33;21.94;52.87
63899;HTU21D;50070;-32.946;-60.652;2023-02-21T08:01:03;22.01;52.85
63899;HTU21D;50070;-32.946;-60.652;2023-02-21T08:03:30;22.20;52.22
63899;HTU21D;50070;-32.946;-60.652;2023-02-21T08:05:58;22.10;52.70
63899;HTU21D;50070;-32.946;-60.652;2023-02-21T08:08:30;22.29;51.88
63899;HTU21D;50070;-32.946;-60.652;2023-02-21T08:10:59;22.29;51.88
63899;HTU21D;50070;-32.946;-60.652;2023-02-21T08:13:26;22.25;51.88
63899;HTU21D;50070;-32.946;-60.652;2023-02-21T08:15:53;22.21;52.03
63899;HTU21D;50070;-32.946;-60.652;2023-02-21T08:18:22;22.40;51.30
63899;HTU21D;50070;-32.946;-60.652;2023-02-21T08:20:55;22.09;52.16
63899;HTU21D;50070;-32.946;-60.652;2023-02-21T08:23:22;22.19;51.98
63899;HTU21D;50070;-32.946;-60.652;2023-02-21T08:25:49;22.32;51.60
63899;HTU21D;50070;-32.946;-60.652;2023-02-21T08:28:16;22.17;52.11
63899;HTU21D;50070;-32.946;-60.652;2023-02-21T08:30:43;22.20;52.11
63899;HTU21D;50070;-32.946;-60.652;2023-02-21T08:33:10;22.13;52.37
63899;HTU21D;50070;-32.946;-60.652;2023-02-21T08:35:36;22.12;52.37
63899;HTU21D;50070;-32.946;-60.652;2023-02-21T08:38:03;22.09;52.75
63899;HTU21D;50070;-32.946;-60.652;2023-02-21T08:40:30;22.18;52.31
63899;HTU21D;50070;-32.946;-60.652;2023-02-21T08:42:59;22.16;52.24
63899;HTU21D;50070;-32.946;-60.652;2023-02-21T08:45:27;22.12;52.30
63899;HTU21D;50070;-32.946;-60.652;2023-02-21T08:47:55;21.96;52.83
63899;HTU21D;50070;-32.946;-60.652;2023-02-21T08:50:23;21.98;52.73
63899;HTU21D;50070;-32.946;-60.652;2023-02-21T08:52:51;22.11;52.03
63899;HTU21D;50070;-32.946;-60.652;2023-02-21T08:55:19;22.02;51.94
63899;HTU21D;50070;-32.946;-60.652;2023-02-21T08:57:52;21.78;52.79
63899;HTU21D;50070;-32.946;-60.652;2023-02-21T09:00:22;21.91;51.72
63899;HTU21D;50070;-32.946;-60.652;2023-02-21T09:02:51;21.69;51.92
63899;HTU21D;50070;-32.946;-60.652;2023-02-21T09:05:22;21.81;50.52
63899;HTU21D;50070;-32.946;-60.652;2023-02-21T09:07:53;21.83;51.14
63899;HTU21D;50070;-32.946;-60.652;2023-02-21T09:10:25;21.85;51.39
63899;HTU21D;50070;-32.946;-60.652;2023-02-21T09:12:53;21.84;51.71
63899;HTU21D;50070;-32.946;-60.652;2023-02-21T09:15:20;21.77;52.14
63899;HTU21D;50070;-32.946;-60.652;2023-02-21T09:17:47;21.90;51.59
63899;HTU21D;50070;-32.946;-60.652;2023-02-21T09:20:18;21.81;51.76
63899;HTU21D;50070;-32.946;-60.652;2023-02-21T09:22:46;21.88;51.81
63899;HTU21D;50070;-32.946;-60.652;2023-02-21T09:25:19;21.81;52.15
63899;HTU21D;50070;-32.946;-60.652;2023-02-21T09:27:48;21.78;51.81
63899;HTU21D;50070;-32.946;-60.652;2023-02-21T09:30:19;21.48;53.04
63899;HTU21D;50070;-32.946;-60.652;2023-02-21T09:32:49;21.47;52.69
63899;HTU21D;50070;-32.946;-60.652;2023-02-21T09:35:17;21.77;52.04
63899;HTU21D;50070;-32.946;-60.652;2023-02-21T09:37:45;21.59;52.96
63899;HTU21D;50070;-32.946;-60.652;2023-02-21T09:42:44;21.73;52.70
63899;HTU21D;50070;-32.946;-60.652;2023-02-21T09:45:15;21.75;52.94
63899;HTU21D;50070;-32.946;-60.652;2023-02-21T09:47:51;21.84;52.82
63899;HTU21D;50070;-32.946;-60.652;2023-02-21T09:50:22;21.52;54.46
63899;HTU21D;50070;-32.946;-60.652;2023-02-21T09:52:56;21.77;53.62
63899;HTU21D;50070;-32.946;-60.652;2023-02-21T09:55:30;21.34;55.23
63899;HTU21D;50070;-32.946;-60.652;2023-02-21T09:57:59;21.45;55.09
63899;HTU21D;50070;-32.946;-60.652;2023-02-21T10:00:44;21.66;54.51
63899;HTU21D;50070;-32.946;-60.652;2023-02-21T10:03:35;21.52;55.23
63899;HTU21D;50070;-32.946;-60.652;2023-02-21T10:19:52;21.01;58.09
63899;HTU21D;50070;-32.946;-60.652;2023-02-21T10:22:33;20.96;58.34
63899;HTU21D;50070;-32.946;-60.652;2023-02-21T10:25:22;20.78;59.25
63899;HTU21D;50070;-32.946;-60.652;2023-02-21T10:27:52;20.84;59.44
63899;HTU21D;50070;-32.946;-60.652;2023-02-21T10:30:37;21.00;59.03
63899;HTU21D;50070;-32.946;-60.652;2023-02-21T10:33:06;21.29;58.09
63899;HTU21D;50070;-32.946;-60.652;2023-02-21T10:35:37;21.30;58.44
63899;HTU21D;50070;-32.946;-60.652;2023-02-21T10:38:19;21.40;58.35
63899;HTU21D;50070;-32.946;-60.652;2023-02-21T10:40:57;21.18;59.64
63899;HTU21D;50070;-32.946;-60.652;2023-02-21T10:43:31;21.13;60.29
63899;HTU21D;50070;-32.946;-60.652;2023-02-21T10:46:35;21.37;59.45
63899;HTU21D;50070;-32.946;-60.652;2023-02-21T10:49:22;21.20;60.54
63899;HTU21D;50070;-32.946;-60.652;2023-02-21T10:52:10;21.54;59.51
63899;HTU21D;50070;-32.946;-60.652;2023-02-21T10:54:37;21.20;61.02
63899;HTU21D;50070;-32.946;-60.652;2023-02-21T10:57:06;21.42;60.57
63899;HTU21D;50070;-32.946;-60.652;2023-02-21T10:59:44;21.48;60.69
63899;HTU21D;50070;-32.946;-60.652;2023-02-21T11:02:28;21.44;61.22
63899;HTU21D;50070;-32.946;-60.652;2023-02-21T11:05:14;21.66;60.54
63899;HTU21D;50070;-32.946;-60.652;2023-02-21T11:07:56;21.46;61.42
63899;HTU21D;50070;-32.946;-60.652;2023-02-21T11:10:33;20.98;63.69
63899;HTU21D;50070;-32.946;-60.652;2023-02-21T11:15:36;20.87;64.79
63899;HTU21D;50070;-32.946;-60.652;2023-02-21T11:18:04;21.20;63.64
63899;HTU21D;50070;-32.946;-60.652;2023-02-21T11:20:31;21.05;64.35
63899;HTU21D;50070;-32.946;-60.652;2023-02-21T11:22:58;20.89;65.33
63899;HTU21D;50070;-32.946;-60.652;2023-02-21T11:25:31;20.87;65.76
63899;HTU21D;50070;-32.946;-60.652;2023-02-21T11:28:27;21.34;63.92
63899;HTU21D;50070;-32.946;-60.652;2023-02-21T11:33:27;21.42;64.00
63899;HTU21D;50070;-32.946;-60.652;2023-02-21T11:38:40;21.85;62.81
63899;HTU21D;50070;-32.946;-60.652;2023-02-21T11:41:50;21.60;64.09
63899;HTU21D;50070;-32.946;-60.652;2023-02-21T11:44:30;21.73;63.75
63899;HTU21D;50070;-32.946;-60.652;2023-02-21T11:47:25;21.70;64.07
63899;HTU21D;50070;-32.946;-60.652;2023-02-21T11:50:35;21.67;64.54
63899;HTU21D;50070;-32.946;-60.652;2023-02-21T11:53:45;21.81;64.17
63899;HTU21D;50070;-32.946;-60.652;2023-02-21T11:56:03;21.74;64.81
63899;HTU21D;50070;-32.946;-60.652;2023-02-21T12:01:28;21.74;65.57
63899;HTU21D;50070;-32.946;-60.652;2023-02-21T12:09:17;22.27;64.29
63899;HTU21D;50070;-32.946;-60.652;2023-02-21T12:11:55;22.33;64.50
63899;HTU21D;50070;-32.946;-60.652;2023-02-21T12:23:35;22.98;63.90
63899;HTU21D;50070;-32.946;-60.652;2023-02-21T12:26:14;23.39;62.56
63899;HTU21D;50070;-32.946;-60.652;2023-02-21T12:29:08;23.61;61.79
63899;HTU21D;50070;-32.946;-60.652;2023-02-21T12:40:30;24.09;60.81
63899;HTU21D;50070;-32.946;-60.652;2023-02-21T12:43:23;24.05;61.12
63899;HTU21D;50070;-32.946;-60.652;2023-02-21T12:51:23;24.29;61.04
63899;HTU21D;50070;-32.946;-60.652;2023-02-21T12:54:22;24.40;61.05
63899;HTU21D;50070;-32.946;-60.652;2023-02-21T13:02:03;24.84;60.14
63899;HTU21D;50070;-32.946;-60.652;2023-02-21T13:05:00;24.64;61.09
63899;HTU21D;50070;-32.946;-60.652;2023-02-21T13:10:25;25.52;58.48
63899;HTU21D;50070;-32.946;-60.652;2023-02-21T13:13:06;25.96;56.64
63899;HTU21D;50070;-32.946;-60.652;2023-02-21T13:15:35;25.74;57.72
63899;HTU21D;50070;-32.946;-60.652;2023-02-21T13:18:23;25.89;57.29
63899;HTU21D;50070;-32.946;-60.652;2023-02-21T13:23:51;26.16;56.69
63899;HTU21D;50070;-32.946;-60.652;2023-02-21T13:26:31;26.15;56.83
63899;HTU21D;50070;-32.946;-60.652;2023-02-21T13:29:01;25.92;57.29
63899;HTU21D;50070;-32.946;-60.652;2023-02-21T13:31:33;26.25;56.62
63899;HTU21D;50070;-32.946;-60.652;2023-02-21T13:34:09;26.48;56.12
63899;HTU21D;50070;-32.946;-60.652;2023-02-21T13:39:10;26.91;54.81
63899;HTU21D;50070;-32.946;-60.652;2023-02-21T13:57:39;27.96;52.04
63899;HTU21D;50070;-32.946;-60.652;2023-02-21T14:03:27;28.42;50.11
63899;HTU21D;50070;-32.946;-60.652;2023-02-21T14:08:28;28.46;49.64
63899;HTU21D;50070;-32.946;-60.652;2023-02-21T14:11:13;28.82;48.90
63899;HTU21D;50070;-32.946;-60.652;2023-02-21T14:16:45;28.86;47.63
63899;HTU21D;50070;-32.946;-60.652;2023-02-21T14:22:12;28.95;46.58
63899;HTU21D;50070;-32.946;-60.652;2023-02-21T14:24:43;29.33;45.06
63899;HTU21D;50070;-32.946;-60.652;2023-02-21T14:30:13;29.35;43.93
63899;HTU21D;50070;-32.946;-60.652;2023-02-21T14:32:51;29.50;42.95
63899;HTU21D;50070;-32.946;-60.652;2023-02-21T14:46:00;29.78;42.07
63899;HTU21D;50070;-32.946;-60.652;2023-02-21T14:51:48;30.11;41.97
63899;HTU21D;50070;-32.946;-60.652;2023-02-21T15:02:42;29.91;40.94
63899;HTU21D;50070;-32.946;-60.652;2023-02-21T15:08:18;29.81;42.01
63899;HTU21D;50070;-32.946;-60.652;2023-02-21T15:10:47;30.08;41.87
63899;HTU21D;50070;-32.946;-60.652;2023-02-21T15:16:07;30.45;41.10
63899;HTU21D;50070;-32.946;-60.652;2023-02-21T15:18:40;30.55;39.77
63899;HTU21D;50070;-32.946;-60.652;2023-02-21T15:23:38;30.27;39.29
63899;HTU21D;50070;-32.946;-60.652;2023-02-21T15:26:18;30.22;39.28
63899;HTU21D;50070;-32.946;-60.652;2023-02-21T15:29:06;30.39;36.17
63899;HTU21D;50070;-32.946;-60.652;2023-02-21T15:31:42;30.49;39.86
63899;HTU21D;50070;-32.946;-60.652;2023-02-21T15:34:37;30.53;39.72
63899;HTU21D;50070;-32.946;-60.652;2023-02-21T15:37:20;30.66;38.15
63899;HTU21D;50070;-32.946;-60.652;2023-02-21T15:40:17;30.59;38.69
63899;HTU21D;50070;-32.946;-60.652;2023-02-21T15:42:46;30.75;38.11
63899;HTU21D;50070;-32.946;-60.652;2023-02-21T15:45:40;30.81;38.19
63899;HTU21D;50070;-32.946;-60.652;2023-02-21T15:48:05;30.89;36.40
63899;HTU21D;50070;-32.946;-60.652;2023-02-21T15:50:42;30.90;37.93
63899;HTU21D;50070;-32.946;-60.652;2023-02-21T15:53:14;30.80;39.31
63899;HTU21D;50070;-32.946;-60.652;2023-02-21T15:55:42;30.85;39.99
63899;HTU21D;50070;-32.946;-60.652;2023-02-21T15:58:24;30.45;40.18
63899;HTU21D;50070;-32.946;-60.652;2023-02-21T16:01:06;30.47;39.57
63899;HTU21D;50070;-32.946;-60.652;2023-02-21T16:03:39;30.85;38.03
63899;HTU21D;50070;-32.946;-60.652;2023-02-21T16:06:25;30.65;37.70
63899;HTU21D;50070;-32.946;-60.652;2023-02-21T16:09:20;30.64;39.47
63899;HTU21D;50070;-32.946;-60.652;2023-02-21T16:11:53;30.82;38.43
63899;HTU21D;50070;-32.946;-60.652;2023-02-21T16:19:41;30.66;38.68
63899;HTU21D;50070;-32.946;-60.652;2023-02-21T16:22:25;30.63;36.69
63899;HTU21D;50070;-32.946;-60.652;2023-02-21T16:27:42;31.00;36.95
63899;HTU21D;50070;-32.946;-60.652;2023-02-21T16:32:46;30.97;37.96
63899;HTU21D;50070;-32.946;-60.652;2023-02-21T16:35:15;30.84;38.29
63899;HTU21D;50070;-32.946;-60.652;2023-02-21T16:37:50;31.10;37.21
63899;HTU21D;50070;-32.946;-60.652;2023-02-21T16:40:29;31.09;35.76
63899;HTU21D;50070;-32.946;-60.652;2023-02-21T16:42:56;30.62;37.88
63899;HTU21D;50070;-32.946;-60.652;2023-02-21T16:45:28;30.91;37.02
63899;HTU21D;50070;-32.946;-60.652;2023-02-21T16:48:05;31.09;37.69
63899;HTU21D;50070;-32.946;-60.652;2023-02-21T16:50:33;31.08;37.24
63899;HTU21D;50070;-32.946;-60.652;2023-02-21T16:53:01;31.35;36.05
63899;HTU21D;50070;-32.946;-60.652;2023-02-21T16:55:28;31.31;34.50
63899;HTU21D;50070;-32.946;-60.652;2023-02-21T16:57:58;31.69;33.93
63899;HTU21D;50070;-32.946;-60.652;2023-02-21T17:00:26;31.85;34.70
63899;HTU21D;50070;-32.946;-60.652;2023-02-21T17:02:53;31.89;35.50
63899;HTU21D;50070;-32.946;-60.652;2023-02-21T17:05:20;31.94;33.92
63899;HTU21D;50070;-32.946;-60.652;2023-02-21T17:07:49;31.89;34.71
63899;HTU21D;50070;-32.946;-60.652;2023-02-21T17:10:17;31.98;34.65
63899;HTU21D;50070;-32.946;-60.652;2023-02-21T17:12:44;31.92;34.50
63899;HTU21D;50070;-32.946;-60.652;2023-02-21T17:15:12;32.02;34.15
63899;HTU21D;50070;-32.946;-60.652;2023-02-21T17:17:41;32.04;33.92
63899;HTU21D;50070;-32.946;-60.652;2023-02-21T17:20:14;32.02;33.74
63899;HTU21D;50070;-32.946;-60.652;2023-02-21T17:22:43;31.98;32.22
63899;HTU21D;50070;-32.946;-60.652;2023-02-21T17:25:11;31.80;33.44
63899;HTU21D;50070;-32.946;-60.652;2023-02-21T17:27:38;31.83;34.60
63899;HTU21D;50070;-32.946;-60.652;2023-02-21T17:30:05;32.05;34.26
63899;HTU21D;50070;-32.946;-60.652;2023-02-21T17:32:32;31.96;35.24
63899;HTU21D;50070;-32.946;-60.652;2023-02-21T17:34:59;32.08;34.11
63899;HTU21D;50070;-32.946;-60.652;2023-02-21T17:37:25;31.96;32.78
63899;HTU21D;50070;-32.946;-60.652;2023-02-21T17:39:53;31.60;33.51
63899;HTU21D;50070;-32.946;-60.652;2023-02-21T17:42:21;31.89;32.44
63899;HTU21D;50070;-32.946;-60.652;2023-02-21T17:44:48;32.17;32.56
63899;HTU21D;50070;-32.946;-60.652;2023-02-21T17:47:22;31.85;33.38
63899;HTU21D;50070;-32.946;-60.652;2023-02-21T17:49:51;31.57;34.61
63899;HTU21D;50070;-32.946;-60.652;2023-02-21T17:52:20;31.70;34.70
63899;HTU21D;50070;-32.946;-60.652;2023-02-21T17:54:47;31.76;34.73
63899;HTU21D;50070;-32.946;-60.652;2023-02-21T17:57:13;31.51;36.39
63899;HTU21D;50070;-32.946;-60.652;2023-02-21T17:59:40;31.76;36.46
63899;HTU21D;50070;-32.946;-60.652;2023-02-21T18:02:07;31.67;36.19